createdAt,value
2023-08-05T00:00:52.360Z,27.20
2023-08-05T00:03:29.027Z,27.22
2023-08-05T00:05:57.001Z,27.10
2023-08-05T00:08:25.757Z,27.02
2023-08-05T00:10:54.648Z,26.90
2023-08-05T00:13:22.680Z,26.90
2023-08-05T00:15:51.573Z,26.78
2023-08-05T00:18:19.634Z,26.76
2023-08-05T00:20:50.125Z,26.70
2023-08-05T00:23:18.096Z,26.70
2023-08-05T00:25:46.238Z,26.70
2023-08-05T00:28:14.113Z,26.60
2023-08-05T00:30:42.130Z,26.60
2023-08-05T00:33:10.049Z,26.40
2023-08-05T00:35:39.062Z,26.40
2023-08-05T00:38:06.904Z,26.30
2023-08-05T00:40:36.868Z,26.30
2023-08-05T00:43:04.983Z,26.30
2023-08-05T00:45:34.379Z,26.24
2023-08-05T00:48:02.534Z,26.22
2023-08-05T00:50:30.517Z,26.20
2023-08-05T00:52:59.511Z,26.20
2023-08-05T00:55:27.916Z,26.04
2023-08-05T00:57:55.866Z,26.00
2023-08-05T01:00:24.293Z,26.00
2023-08-05T01:02:52.416Z,26.00
2023-08-05T01:05:22.234Z,26.00
2023-08-05T01:07:50.345Z,25.90
2023-08-05T01:10:18.078Z,25.80
2023-08-05T01:12:46.026Z,25.80
2023-08-05T01:15:13.898Z,25.78
2023-08-05T01:17:41.850Z,25.70
2023-08-05T01:20:10.277Z,25.62
2023-08-05T01:22:42.380Z,25.60
2023-08-05T01:25:27.062Z,25.58
2023-08-05T01:27:56.065Z,25.60
2023-08-05T01:30:25.183Z,25.50
2023-08-05T01:32:53.592Z,25.50
2023-08-05T01:35:22.251Z,25.40
2023-08-05T01:37:50.570Z,25.40
2023-08-05T01:40:18.673Z,25.46
2023-08-05T01:42:46.668Z,25.40
2023-08-05T01:45:14.767Z,25.40
2023-08-05T01:47:42.846Z,25.36
2023-08-05T01:50:10.940Z,25.30
2023-08-05T01:52:39.353Z,25.30
2023-08-05T01:55:07.511Z,25.30
2023-08-05T01:57:35.704Z,25.22
2023-08-05T02:00:04.250Z,25.20
2023-08-05T02:02:41.717Z,25.20
2023-08-05T02:05:11.028Z,25.10
2023-08-05T02:07:39.212Z,25.04
2023-08-05T02:10:07.594Z,25.00
2023-08-05T02:12:35.612Z,24.92
2023-08-05T02:15:03.687Z,24.90
2023-08-05T02:17:31.678Z,24.90
2023-08-05T02:19:59.801Z,24.90
2023-08-05T02:22:28.872Z,24.90
2023-08-05T02:24:57.004Z,24.88
2023-08-05T02:27:25.601Z,24.80
2023-08-05T02:29:53.609Z,24.80
2023-08-05T02:32:21.659Z,24.80
2023-08-05T02:34:49.483Z,24.72
2023-08-05T02:37:17.529Z,24.70
2023-08-05T02:39:45.464Z,24.70
2023-08-05T02:42:14.392Z,24.70
2023-08-05T02:44:43.383Z,24.70
2023-08-05T02:47:12.539Z,24.70
2023-08-05T02:49:40.669Z,24.66
2023-08-05T02:52:08.610Z,24.60
2023-08-05T02:54:36.472Z,24.60
2023-08-05T02:57:04.901Z,24.60
2023-08-05T02:59:32.978Z,24.50
2023-08-05T03:02:01.078Z,24.50
2023-08-05T03:04:29.080Z,24.50
2023-08-05T03:06:57.047Z,24.50
2023-08-05T03:09:24.853Z,24.40
2023-08-05T03:11:52.588Z,24.30
2023-08-05T03:14:20.507Z,24.30
2023-08-05T03:16:49.639Z,24.30
2023-08-05T03:19:20.365Z,24.30
2023-08-05T03:21:48.850Z,24.20
2023-08-05T03:24:16.862Z,24.20
2023-08-05T03:26:47.683Z,24.10
2023-08-05T03:29:16.506Z,24.10
2023-08-05T03:31:45.091Z,24.10
2023-08-05T03:34:13.935Z,24.10
2023-08-05T03:36:41.926Z,24.00
2023-08-05T03:39:10.127Z,24.02
2023-08-05T03:41:38.172Z,24.10
2023-08-05T03:44:06.109Z,24.10
2023-08-05T03:46:34.123Z,24.10
2023-08-05T03:49:03.576Z,24.10
2023-08-05T03:51:31.800Z,24.10
2023-08-05T03:54:01.896Z,24.20
2023-08-05T03:56:30.049Z,24.12
2023-08-05T03:58:58.753Z,24.20
2023-08-05T04:01:27.985Z,24.24
2023-08-05T04:03:56.843Z,24.30
2023-08-05T04:06:26.761Z,24.40
2023-08-05T04:08:55.373Z,24.42
2023-08-05T04:11:23.381Z,24.50
2023-08-05T04:13:54.058Z,24.50
2023-08-05T04:16:24.045Z,24.66
2023-08-05T04:18:53.544Z,24.70
2023-08-05T04:21:24.668Z,24.80
2023-08-05T04:23:53.235Z,24.80
2023-08-05T04:26:21.158Z,24.92
2023-08-05T04:28:49.151Z,24.98
2023-08-05T04:31:17.872Z,25.00
2023-08-05T04:33:48.120Z,25.12
2023-08-05T04:36:16.064Z,25.10
2023-08-05T04:38:44.029Z,25.30
2023-08-05T04:41:11.926Z,25.26
2023-08-05T04:43:39.839Z,25.36
2023-08-05T04:46:07.772Z,25.50
2023-08-05T04:48:35.782Z,25.58
2023-08-05T04:51:04.011Z,25.64
2023-08-05T04:53:31.811Z,25.90
2023-08-05T04:55:59.667Z,25.92
2023-08-05T04:58:28.238Z,26.00
2023-08-05T05:00:59.442Z,26.00
2023-08-05T05:03:27.472Z,26.10
2023-08-05T05:05:56.466Z,26.08
2023-08-05T05:08:25.089Z,26.00
2023-08-05T05:10:53.212Z,26.20
2023-08-05T05:13:21.125Z,26.18
2023-08-05T05:15:49.675Z,26.30
2023-08-05T05:18:17.541Z,26.40
2023-08-05T05:20:49.437Z,26.40
2023-08-05T05:23:17.922Z,26.50
2023-08-05T05:25:45.905Z,26.54
2023-08-05T05:28:13.838Z,26.76
2023-08-05T05:30:41.827Z,26.82
2023-08-05T05:33:09.756Z,26.82
2023-08-05T05:35:37.744Z,27.08
2023-08-05T05:38:05.700Z,26.82
2023-08-05T05:40:33.619Z,26.86
2023-08-05T05:43:01.598Z,27.10
2023-08-05T05:45:29.588Z,27.40
2023-08-05T05:47:57.690Z,27.50
2023-08-05T05:50:25.609Z,27.60
2023-08-05T05:52:55.484Z,27.50
2023-08-05T05:55:23.485Z,27.72
2023-08-05T05:57:51.346Z,27.90
2023-08-05T06:00:19.469Z,27.80
2023-08-05T06:02:47.354Z,27.96
2023-08-05T06:05:15.447Z,27.94
2023-08-05T06:07:43.527Z,28.10
2023-08-05T06:10:11.743Z,28.20
2023-08-05T06:12:39.615Z,28.20
2023-08-05T06:15:09.004Z,28.14
2023-08-05T06:17:37.112Z,28.12
2023-08-05T06:20:05.861Z,28.24
2023-08-05T06:22:33.764Z,28.40
2023-08-05T06:25:01.685Z,28.54
2023-08-05T06:27:30.197Z,28.80
2023-08-05T06:29:58.332Z,28.92
2023-08-05T06:32:26.255Z,28.90
2023-08-05T06:34:54.922Z,28.94
2023-08-05T06:37:23.144Z,28.90
2023-08-05T06:39:51.189Z,28.88
2023-08-05T06:42:19.257Z,28.98
2023-08-05T06:44:50.705Z,29.14
2023-08-05T06:47:18.704Z,29.18
2023-08-05T06:49:46.681Z,29.14
2023-08-05T06:52:14.747Z,29.22
2023-08-05T06:54:42.609Z,29.20
2023-08-05T06:57:10.595Z,29.60
2023-08-05T06:59:38.592Z,29.94
2023-08-05T07:02:07.209Z,29.68
2023-08-05T07:04:35.252Z,29.84
2023-08-05T07:07:03.081Z,29.78
2023-08-05T07:09:31.333Z,30.00
2023-08-05T07:11:59.310Z,30.20
2023-08-05T07:14:29.558Z,29.92
2023-08-05T07:16:57.289Z,29.94
2023-08-05T07:19:25.225Z,29.94
2023-08-05T07:21:53.329Z,30.14
2023-08-05T07:24:21.624Z,30.18
2023-08-05T07:26:49.527Z,30.22
2023-08-05T07:29:17.418Z,30.08
2023-08-05T07:31:45.442Z,30.16
2023-08-05T07:34:14.126Z,30.64
2023-08-05T07:36:44.502Z,30.76
2023-08-05T07:39:12.682Z,30.28
2023-08-05T07:41:40.792Z,30.18
2023-08-05T07:44:10.967Z,30.64
2023-08-05T07:46:41.851Z,30.92
2023-08-05T07:49:12.228Z,30.52
2023-08-05T07:51:46.441Z,30.50
2023-08-05T07:54:15.083Z,30.40
2023-08-05T07:56:43.273Z,30.46
2023-08-05T07:59:14.114Z,30.44
2023-08-05T08:01:46.679Z,30.26
2023-08-05T08:04:16.217Z,30.30
2023-08-05T08:06:46.400Z,30.38
2023-08-05T08:09:14.712Z,30.66
2023-08-05T08:11:42.744Z,31.26
2023-08-05T08:14:10.765Z,31.26
2023-08-05T08:16:38.725Z,31.20
2023-08-05T08:19:08.555Z,30.90
2023-08-05T08:21:36.531Z,30.76
2023-08-05T08:24:04.530Z,31.00
2023-08-05T08:26:32.501Z,31.02
2023-08-05T08:29:00.346Z,30.82
2023-08-05T08:31:31.712Z,30.80
2023-08-05T08:33:59.829Z,31.38
2023-08-05T08:36:27.701Z,31.54
2023-08-05T08:38:55.640Z,31.56
2023-08-05T08:41:24.813Z,31.60
2023-08-05T08:43:52.873Z,31.40
2023-08-05T08:46:20.887Z,31.58
2023-08-05T08:48:52.724Z,32.20
2023-08-05T08:51:21.993Z,32.34
2023-08-05T08:53:49.973Z,32.34
2023-08-05T08:56:17.954Z,31.86
2023-08-05T08:58:46.020Z,31.78
2023-08-05T09:01:14.365Z,31.70
2023-08-05T09:03:42.431Z,32.08
2023-08-05T09:06:10.532Z,32.26
2023-08-05T09:08:38.505Z,31.96
2023-08-05T09:11:06.515Z,32.04
2023-08-05T09:13:34.422Z,32.24
2023-08-05T09:16:02.591Z,32.46
2023-08-05T09:18:31.822Z,33.00
2023-08-05T09:21:00.887Z,32.72
2023-08-05T09:23:28.993Z,32.70
2023-08-05T09:25:57.008Z,32.60
2023-08-05T09:28:34.222Z,32.78
2023-08-05T09:31:17.562Z,32.80
2023-08-05T09:33:45.840Z,32.70
2023-08-05T09:36:14.421Z,32.78
2023-08-05T09:38:46.286Z,32.80
2023-08-05T09:41:15.096Z,32.92
2023-08-05T09:43:46.828Z,33.20
2023-08-05T09:46:15.234Z,32.98
2023-08-05T09:48:43.964Z,33.52
2023-08-05T09:51:14.892Z,33.28
2023-08-05T09:53:43.007Z,33.60
2023-08-05T09:56:11.638Z,33.40
2023-08-05T09:58:39.652Z,33.66
2023-08-05T10:01:08.848Z,33.70
2023-08-05T10:03:38.840Z,33.62
2023-08-05T10:06:07.614Z,33.80
2023-08-05T10:08:37.488Z,34.10
2023-08-05T10:11:05.627Z,34.26
2023-08-05T10:13:38.400Z,34.16
2023-08-05T10:16:07.618Z,34.26
2023-08-05T10:18:36.258Z,33.84
2023-08-05T10:21:08.759Z,33.80
2023-08-05T10:23:37.221Z,34.36
2023-08-05T10:26:05.802Z,34.30
2023-08-05T10:28:36.544Z,34.20
2023-08-05T10:31:05.936Z,34.26
2023-08-05T10:34:10.209Z,34.16
2023-08-05T10:36:43.053Z,34.70
2023-08-05T10:39:44.969Z,34.68
2023-08-05T10:42:31.442Z,34.66
2023-08-05T10:45:00.022Z,34.98
2023-08-05T10:47:28.129Z,34.74
2023-08-05T10:50:01.447Z,34.68
2023-08-05T10:52:30.660Z,34.76
2023-08-05T10:54:58.835Z,35.06
2023-08-05T10:57:35.932Z,34.94
2023-08-05T11:00:04.605Z,34.84
2023-08-05T11:02:32.799Z,34.64
2023-08-05T11:05:08.100Z,34.84
2023-08-05T11:07:42.318Z,35.10
2023-08-05T11:10:10.562Z,35.04
2023-08-05T11:12:38.565Z,34.86
2023-08-05T11:15:07.038Z,34.80
2023-08-05T11:17:35.079Z,35.02
2023-08-05T11:20:03.855Z,35.02
2023-08-05T11:22:34.099Z,34.80
2023-08-05T11:25:03.156Z,35.28
2023-08-05T11:27:34.890Z,35.20
2023-08-05T11:30:15.915Z,35.34
2023-08-05T11:32:59.403Z,35.22
2023-08-05T11:35:27.685Z,35.26
2023-08-05T11:37:56.090Z,35.40
2023-08-05T11:40:24.830Z,35.36
2023-08-05T11:42:53.724Z,35.24
2023-08-05T11:45:21.961Z,35.16
2023-08-05T11:47:49.995Z,35.48
2023-08-05T11:50:17.986Z,35.66
2023-08-05T11:52:46.722Z,35.78
2023-08-05T11:55:14.671Z,35.72
2023-08-05T11:57:42.577Z,35.80
2023-08-05T12:00:11.478Z,35.80
2023-08-05T12:02:39.528Z,36.12
2023-08-05T12:05:11.856Z,36.50
2023-08-05T12:07:41.485Z,36.14
2023-08-05T12:10:16.456Z,36.20
2023-08-05T12:12:45.824Z,36.24
2023-08-05T12:15:14.506Z,36.02
2023-08-05T12:17:47.466Z,36.04
2023-08-05T12:20:19.143Z,36.38
2023-08-05T12:22:47.499Z,36.36
2023-08-05T12:25:15.544Z,36.18
2023-08-05T12:27:43.539Z,35.74
2023-08-05T12:30:11.852Z,36.00
2023-08-05T12:32:40.365Z,36.26
2023-08-05T12:35:09.786Z,36.50
2023-08-05T12:37:38.609Z,36.30
2023-08-05T12:40:15.385Z,36.10
2023-08-05T12:42:43.316Z,36.26
2023-08-05T12:45:11.422Z,36.30
2023-08-05T12:47:40.254Z,36.40
2023-08-05T12:50:09.164Z,36.82
2023-08-05T12:52:37.283Z,36.68
2023-08-05T12:55:05.854Z,36.60
2023-08-05T12:57:33.968Z,36.38
2023-08-05T13:00:02.420Z,36.44
2023-08-05T13:02:30.700Z,36.58
2023-08-05T13:04:59.024Z,36.80
2023-08-05T13:07:27.143Z,36.64
2023-08-05T13:09:55.133Z,36.50
2023-08-05T13:12:23.253Z,36.70
2023-08-05T13:14:51.210Z,36.70
2023-08-05T13:17:19.278Z,36.64
2023-08-05T13:19:47.266Z,36.62
2023-08-05T13:22:15.212Z,36.38
2023-08-05T13:24:43.335Z,36.66
2023-08-05T13:27:11.250Z,36.80
2023-08-05T13:29:39.306Z,36.62
2023-08-05T13:32:07.395Z,36.56
2023-08-05T13:34:35.216Z,36.68
2023-08-05T13:37:03.118Z,36.50
2023-08-05T13:39:31.064Z,36.42
2023-08-05T13:42:01.339Z,36.74
2023-08-05T13:44:29.937Z,36.68
2023-08-05T13:46:57.954Z,36.56
2023-08-05T13:49:26.102Z,36.62
2023-08-05T13:51:54.381Z,36.52
2023-08-05T13:54:22.429Z,36.48
2023-08-05T13:56:50.984Z,36.24
2023-08-05T13:59:19.042Z,36.24
2023-08-05T14:01:48.085Z,36.14
2023-08-05T14:04:16.068Z,36.30
2023-08-05T14:06:44.051Z,36.44
2023-08-05T14:09:11.900Z,36.50
2023-08-05T14:11:39.762Z,36.50
2023-08-05T14:14:07.565Z,36.30
2023-08-05T14:16:37.344Z,36.34
2023-08-05T14:19:05.424Z,36.42
2023-08-05T14:21:33.498Z,36.50
2023-08-05T14:24:01.884Z,36.50
2023-08-05T14:26:31.590Z,36.50
2023-08-05T14:29:00.626Z,36.48
2023-08-05T14:31:28.506Z,36.26
2023-08-05T14:33:56.817Z,35.94
2023-08-05T14:36:26.762Z,36.20
2023-08-05T14:38:54.794Z,36.30
2023-08-05T14:41:24.018Z,36.38
2023-08-05T14:43:52.657Z,36.36
2023-08-05T14:46:20.697Z,36.48
2023-08-05T14:48:48.951Z,36.20
2023-08-05T14:51:18.199Z,36.40
2023-08-05T14:53:46.288Z,36.16
2023-08-05T14:56:14.201Z,36.14
2023-08-05T14:58:42.269Z,36.14
2023-08-05T15:01:18.922Z,36.10
2023-08-05T15:03:48.143Z,36.10
2023-08-05T15:06:17.033Z,36.10
2023-08-05T15:08:45.553Z,36.10
2023-08-05T15:11:13.860Z,36.14
2023-08-05T15:13:41.824Z,36.10
2023-08-05T15:16:09.877Z,36.14
2023-08-05T15:18:37.832Z,36.10
2023-08-05T15:21:05.809Z,36.00
2023-08-05T15:23:34.671Z,35.80
2023-08-05T15:26:03.152Z,35.80
2023-08-05T15:28:31.539Z,35.80
2023-08-05T15:30:59.686Z,35.76
2023-08-05T15:33:30.384Z,35.70
2023-08-05T15:35:58.248Z,35.58
2023-08-05T15:38:26.196Z,35.60
2023-08-05T15:41:00.593Z,35.60
2023-08-05T15:43:28.812Z,35.60
2023-08-05T15:45:58.944Z,35.54
2023-08-05T15:48:26.999Z,35.44
2023-08-05T15:50:55.228Z,35.40
2023-08-05T15:53:23.289Z,35.36
2023-08-05T15:56:01.968Z,35.30
2023-08-05T15:58:30.101Z,35.30
2023-08-05T16:01:01.952Z,35.30
2023-08-05T16:03:29.979Z,35.20
2023-08-05T16:06:08.427Z,35.16
2023-08-05T16:08:38.497Z,35.06
2023-08-05T16:11:11.494Z,35.00
2023-08-05T16:13:39.615Z,34.84
2023-08-05T16:16:15.594Z,34.72
2023-08-05T16:18:45.318Z,34.60
2023-08-05T16:21:17.564Z,34.50
2023-08-05T16:23:45.990Z,34.50
2023-08-05T16:26:14.936Z,34.50
2023-08-05T16:28:43.379Z,34.36
2023-08-05T16:31:11.334Z,34.30
2023-08-05T16:33:40.039Z,34.30
2023-08-05T16:36:09.377Z,34.30
2023-08-05T16:38:37.586Z,34.20
2023-08-05T16:41:05.497Z,34.14
2023-08-05T16:43:33.410Z,34.00
2023-08-05T16:46:01.375Z,34.00
2023-08-05T16:48:29.302Z,33.90
2023-08-05T16:50:57.312Z,33.80
2023-08-05T16:53:25.303Z,33.70
2023-08-05T16:55:53.316Z,33.70
2023-08-05T16:58:21.250Z,33.52
2023-08-05T17:00:49.403Z,33.50
2023-08-05T17:03:17.458Z,33.40
2023-08-05T17:05:45.314Z,33.30
2023-08-05T17:08:13.397Z,33.20
2023-08-05T17:10:41.357Z,33.10
2023-08-05T17:13:09.427Z,33.00
2023-08-05T17:15:37.289Z,32.90
2023-08-05T17:18:05.925Z,32.80
2023-08-05T17:20:34.078Z,32.60
2023-08-05T17:23:01.956Z,32.54
2023-08-05T17:25:29.882Z,32.40
2023-08-05T17:27:58.379Z,32.32
2023-08-05T17:30:26.431Z,32.20
2023-08-05T17:32:54.462Z,32.04
2023-08-05T17:35:22.419Z,31.94
2023-08-05T17:37:50.478Z,31.90
2023-08-05T17:40:18.417Z,31.90
2023-08-05T17:42:46.428Z,31.88
2023-08-05T17:45:16.331Z,31.80
2023-08-05T17:47:44.543Z,31.78
2023-08-05T17:50:12.466Z,31.70
2023-08-05T17:52:40.469Z,31.62
2023-08-05T17:55:08.571Z,31.50
2023-08-05T17:57:36.551Z,31.58
2023-08-05T18:00:05.321Z,31.56
2023-08-05T18:02:33.482Z,31.40
2023-08-05T18:05:01.492Z,31.40
2023-08-05T18:07:29.333Z,31.30
2023-08-05T18:09:59.491Z,31.30
2023-08-05T18:12:28.779Z,31.20
2023-08-05T18:14:56.747Z,31.20
2023-08-05T18:17:24.596Z,31.26
2023-08-05T18:19:52.498Z,31.20
2023-08-05T18:22:20.531Z,31.12
2023-08-05T18:24:48.602Z,31.10
2023-08-05T18:27:17.382Z,31.00
2023-08-05T18:29:45.359Z,30.90
2023-08-05T18:32:16.387Z,30.90
2023-08-05T18:34:44.266Z,30.80
2023-08-05T18:37:12.449Z,30.70
2023-08-05T18:39:40.344Z,30.70
2023-08-05T18:42:08.471Z,30.60
2023-08-05T18:44:37.552Z,30.50
2023-08-05T18:47:06.267Z,30.50
2023-08-05T18:49:34.098Z,30.40
2023-08-05T18:52:02.350Z,30.40
2023-08-05T18:54:30.452Z,30.30
2023-08-05T18:56:58.344Z,30.30
2023-08-05T18:59:26.460Z,30.26
2023-08-05T19:01:54.620Z,30.12
2023-08-05T19:04:23.022Z,30.00
2023-08-05T19:06:51.178Z,30.00
2023-08-05T19:09:19.206Z,30.06
2023-08-05T19:11:48.130Z,30.10
2023-08-05T19:14:16.039Z,30.10
2023-08-05T19:16:44.245Z,30.00
2023-08-05T19:19:12.061Z,29.90
2023-08-05T19:21:40.298Z,29.90
2023-08-05T19:24:08.265Z,29.90
2023-08-05T19:26:40.389Z,29.80
2023-08-05T19:29:09.137Z,29.74
2023-08-05T19:31:37.369Z,29.70
2023-08-05T19:34:06.511Z,29.70
2023-08-05T19:36:34.470Z,29.60
2023-08-05T19:39:02.434Z,29.50
2023-08-05T19:41:30.927Z,29.50
2023-08-05T19:43:59.008Z,29.50
2023-08-05T19:46:27.141Z,29.40
2023-08-05T19:48:55.240Z,29.40
2023-08-05T19:51:23.276Z,29.40
2023-08-05T19:53:51.633Z,29.30
2023-08-05T19:56:19.686Z,29.20
2023-08-05T19:58:49.580Z,29.20
2023-08-05T20:01:17.757Z,29.10
2023-08-05T20:03:46.044Z,29.00
2023-08-05T20:06:13.905Z,28.90
2023-08-05T20:08:43.333Z,28.80
2023-08-05T20:11:12.772Z,28.70
2023-08-05T20:13:41.164Z,28.70
2023-08-05T20:16:09.148Z,28.60
2023-08-05T20:18:37.131Z,28.60
2023-08-05T20:21:05.509Z,28.58
2023-08-05T20:23:34.889Z,28.50
2023-08-05T20:26:09.945Z,28.48
2023-08-05T20:28:37.952Z,28.50
2023-08-05T20:31:05.859Z,28.50
2023-08-05T20:33:33.897Z,28.50
2023-08-05T20:36:02.132Z,28.58
2023-08-05T20:38:30.029Z,28.56
2023-08-05T20:40:57.972Z,28.50
2023-08-05T20:43:25.912Z,28.58
2023-08-05T20:45:54.486Z,28.50
2023-08-05T20:48:22.673Z,28.50
2023-08-05T20:50:57.379Z,28.58
2023-08-05T20:53:25.392Z,28.50
2023-08-05T20:55:55.229Z,28.54
2023-08-05T20:58:23.264Z,28.60
2023-08-05T21:01:00.189Z,28.60
2023-08-05T21:03:28.195Z,28.70
2023-08-05T21:06:02.456Z,28.60
2023-08-05T21:08:30.841Z,28.60
2023-08-05T21:11:08.828Z,28.50
2023-08-05T21:13:40.197Z,28.50
2023-08-05T21:16:08.522Z,28.32
2023-08-05T21:18:36.432Z,28.30
2023-08-05T21:21:04.513Z,28.30
2023-08-05T21:23:32.715Z,28.22
2023-08-05T21:26:00.847Z,28.10
2023-08-05T21:28:28.931Z,28.10
2023-08-05T21:30:58.095Z,28.00
2023-08-05T21:33:26.632Z,27.90
2023-08-05T21:35:55.303Z,27.74
2023-08-05T21:38:23.262Z,27.70
2023-08-05T21:40:51.458Z,27.60
2023-08-05T21:43:19.584Z,27.50
2023-08-05T21:45:51.822Z,27.48
2023-08-05T21:48:20.605Z,27.40
2023-08-05T21:50:48.683Z,27.40
2023-08-05T21:53:16.842Z,27.40
2023-08-05T21:55:45.746Z,27.30
2023-08-05T21:58:13.913Z,27.20
2023-08-05T22:00:41.990Z,27.14
2023-08-05T22:03:11.743Z,27.20
2023-08-05T22:05:40.100Z,27.14
2023-08-05T22:08:08.158Z,27.08
2023-08-05T22:10:37.469Z,27.00
2023-08-05T22:13:05.431Z,27.00
2023-08-05T22:15:33.412Z,26.96
2023-08-05T22:18:01.510Z,26.92
2023-08-05T22:20:29.428Z,25.94
2023-08-05T22:22:57.668Z,25.10
2023-08-05T22:25:25.632Z,24.20
2023-08-05T22:27:53.651Z,24.08
2023-08-05T22:30:21.504Z,23.64
2023-08-05T22:32:49.504Z,23.30
2023-08-05T22:35:17.477Z,23.02
2023-08-05T22:37:45.315Z,22.70
2023-08-05T22:40:13.125Z,22.46
2023-08-05T22:42:41.132Z,22.42
2023-08-05T22:45:09.579Z,22.30
2023-08-05T22:47:37.599Z,22.30
2023-08-05T22:50:06.116Z,22.30
2023-08-05T22:52:33.931Z,22.00
2023-08-05T22:55:01.887Z,21.88
2023-08-05T22:57:29.841Z,21.60
2023-08-05T22:59:57.924Z,21.50
2023-08-05T23:02:26.016Z,21.40
2023-08-05T23:04:54.147Z,21.50
2023-08-05T23:07:22.377Z,21.70
2023-08-05T23:09:52.075Z,21.70
2023-08-05T23:12:21.786Z,21.70
2023-08-05T23:14:50.978Z,21.60
2023-08-05T23:17:19.042Z,21.60
2023-08-05T23:19:47.938Z,21.62
2023-08-05T23:22:16.768Z,21.62
2023-08-05T23:24:44.842Z,21.60
2023-08-05T23:27:12.735Z,21.60
2023-08-05T23:29:40.728Z,21.58
2023-08-05T23:32:08.628Z,21.50
2023-08-05T23:34:36.675Z,21.40
2023-08-05T23:37:04.778Z,21.40
2023-08-05T23:39:32.977Z,21.40
2023-08-05T23:42:00.848Z,21.40
2023-08-05T23:44:28.755Z,21.40
2023-08-05T23:46:56.716Z,21.34
2023-08-05T23:49:24.720Z,21.40
2023-08-05T23:51:52.886Z,21.40
2023-08-05T23:54:21.190Z,21.40
2023-08-05T23:56:49.287Z,21.42
2023-08-05T23:59:17.123Z,21.40
